Time;durP1;ratioP1;P1;durP2;ratioP2;P2;SDS_P1;SDS_P2;PMS_P1;PMS_P2;Temp;Humidity;BMP_temperature;BMP_pressure;BME280_temperature;BME280_humidity;BME280_pressure;Samples;Min_cycle;Max_cycle;Signal;HPM_P1;HPM_P2
2021/08/30 00:10:53;;;;;;;5.18;4.68;;;;;;;14.88;83.05;98928.94;2618480;39;20448;-72
2021/08/30 00:13:22;;;;;;;5.28;4.30;;;;;;;14.92;83.50;98930.13;2619308;54;20061;-73
2021/08/30 00:15:52;;;;;;;5.45;4.82;;;;;;;14.96;83.28;98926.00;2619809;54;20561;-73
2021/08/30 00:18:22;;;;;;;6.00;5.10;;;;;;;15.01;83.25;98930.66;2619093;54;20085;-73
2021/08/30 00:20:51;;;;;;;5.53;4.93;;;;;;;15.03;83.00;98933.94;2617193;47;20134;-72
2021/08/30 00:23:21;;;;;;;4.95;4.45;;;;;;;15.06;82.95;98928.16;2618413;54;20034;-72
2021/08/30 00:25:53;;;;;;;5.15;4.60;;;;;;;15.04;83.15;98924.91;2618719;39;20442;-73
2021/08/30 00:28:23;;;;;;;6.53;4.82;;;;;;;15.00;82.80;98931.69;2617969;54;20065;-73
2021/08/30 00:30:53;;;;;;;6.97;5.25;;;;;;;14.98;83.04;98925.75;2618168;54;20030;-73
2021/08/30 00:33:22;;;;;;;7.68;5.38;;;;;;;14.96;83.13;98922.53;2618072;54;20033;-73
2021/08/30 00:35:52;;;;;;;7.60;5.18;;;;;;;14.98;82.95;98918.63;2618021;47;20182;-72
2021/08/30 00:38:22;;;;;;;7.00;5.22;;;;;;;14.98;83.10;98918.63;2617323;39;20422;-72
2021/08/30 00:40:54;;;;;;;7.72;4.63;;;;;;;15.00;82.75;98915.72;2618268;54;20541;-73
2021/08/30 00:43:23;;;;;;;6.00;4.35;;;;;;;15.01;82.90;98920.81;2616636;47;20034;-72
2021/08/30 00:45:53;;;;;;;5.50;5.00;;;;;;;15.03;82.80;98916.13;2616629;54;20026;-72
2021/08/30 00:48:23;;;;;;;6.10;4.90;;;;;;;14.95;82.67;98913.72;2616511;54;20055;-72
2021/08/30 00:50:52;;;;;;;4.75;4.32;;;;;;;14.95;82.86;98911.06;2616889;54;20022;-71
2021/08/30 00:53:22;;;;;;;5.78;4.32;;;;;;;14.97;83.39;98916.16;2616668;54;20031;-72
2021/08/30 00:55:54;;;;;;;6.22;5.18;;;;;;;15.01;83.14;98912.03;2616803;54;20033;-73
2021/08/30 00:58:24;;;;;;;5.32;4.05;;;;;;;14.99;82.86;98914.09;2616603;54;20593;-72
2021/08/30 01:00:54;;;;;;;5.22;4.00;;;;;;;14.96;82.76;98912.69;2616736;54;20078;-71
2021/08/30 01:03:24;;;;;;;5.55;4.30;;;;;;;14.93;82.69;98913.13;2616773;54;20053;-72
2021/08/30 01:06:00;;;;;;;4.65;4.18;;;;;;;14.89;82.94;98908.44;2616919;54;20022;-72
2021/08/30 01:08:35;;;;;;;4.60;4.20;;;;;;;14.87;83.02;98906.00;2616462;54;20019;-73
2021/08/30 01:11:11;;;;;;;4.50;3.80;;;;;;;14.81;82.63;98912.19;2616841;54;20019;-73
2021/08/30 01:13:46;;;;;;;4.35;3.90;;;;;;;14.76;83.07;98910.19;2616858;47;20030;-73
2021/08/30 01:16:18;;;;;;;5.22;3.63;;;;;;;14.75;82.74;98903.25;2617901;54;20039;-73
2021/08/30 01:18:52;;;;;;;3.90;3.45;;;;;;;14.80;82.97;98897.25;2618328;54;20537;-73
2021/08/30 01:21:25;;;;;;;5.80;4.40;;;;;;;14.80;83.07;98894.59;2619544;39;20437;-73
2021/08/30 01:23:59;;;;;;;5.75;3.85;;;;;;;14.81;83.19;98897.03;2621196;54;20022;-73
2021/08/30 01:26:33;;;;;;;4.75;4.32;;;;;;;14.84;83.14;98893.13;2620265;47;20042;-73
2021/08/30 01:29:08;;;;;;;5.18;4.43;;;;;;;14.79;82.59;98906.28;2619280;47;20179;-73
2021/08/30 01:31:46;;;;;;;4.60;4.20;;;;;;;14.76;83.19;98891.56;2619771;54;20071;-72
2021/08/30 01:34:20;;;;;;;4.65;4.20;;;;;;;14.74;83.33;98903.47;2619405;54;20041;-73
2021/08/30 01:36:52;;;;;;;4.18;3.78;;;;;;;14.73;83.29;98912.47;2619273;54;20042;-72
2021/08/30 01:39:26;;;;;;;4.13;3.72;;;;;;;14.76;83.28;98922.69;2619347;54;20557;-73
2021/08/30 01:41:56;;;;;;;8.15;4.45;;;;;;;14.73;83.53;98915.13;2617564;54;20034;-72
2021/08/30 01:44:27;;;;;;;4.40;3.78;;;;;;;14.70;83.36;98908.41;2617122;39;20437;-73
2021/08/30 01:46:59;;;;;;;5.25;3.78;;;;;;;14.68;82.97;98912.31;2616637;54;20035;-73
2021/08/30 01:49:32;;;;;;;5.28;3.92;;;;;;;14.66;83.24;98906.41;2616687;54;20030;-73
2021/08/30 01:52:02;;;;;;;4.40;4.00;;;;;;;14.64;83.14;98903.94;2616776;54;20159;-74
2021/08/30 01:54:32;;;;;;;4.40;4.00;;;;;;;14.66;83.28;98912.53;2616790;46;20094;-73
2021/08/30 01:57:02;;;;;;;4.85;4.38;;;;;;;14.67;83.56;98914.16;2616900;54;20025;-73
2021/08/30 02:02:26;;;;;;;4.38;3.97;;;;;;;14.59;83.88;98923.22;2616738;54;20053;-73
2021/08/30 02:04:58;;;;;;;5.75;4.60;;;;;;;14.62;83.28;98919.31;2616763;54;20023;-72
2021/08/30 02:07:29;;;;;;;6.50;4.60;;;;;;;14.64;83.27;98927.06;2617245;47;20031;-72
2021/08/30 02:10:00;;;;;;;4.45;4.05;;;;;;;14.63;83.63;98928.91;2618144;54;20026;-73
2021/08/30 02:12:29;;;;;;;5.63;4.30;;;;;;;14.64;83.27;98925.22;2617355;47;20030;-73
2021/08/30 02:14:59;;;;;;;7.50;4.63;;;;;;;14.63;83.67;98928.91;2617892;54;20030;-73
2021/08/30 02:17:34;;;;;;;5.95;5.10;;;;;;;14.58;83.66;98913.59;2617195;51;20034;-73
2021/08/30 02:20:16;;;;;;;4.95;4.45;;;;;;;14.52;83.38;98916.28;2618340;39;20488;-73
2021/08/30 02:22:47;;;;;;;5.35;4.85;;;;;;;14.48;83.68;98912.41;2617969;54;20026;-74
2021/08/30 02:25:22;;;;;;;5.35;4.85;;;;;;;14.47;84.02;98918.75;2617873;54;20034;-72
2021/08/30 02:27:55;;;;;;;6.18;4.50;;;;;;;14.50;84.21;98918.38;2617866;54;20034;-73
2021/08/30 02:30:29;;;;;;;5.40;4.90;;;;;;;14.51;84.31;98914.69;2619576;54;20019;-72
2021/08/30 02:33:04;;;;;;;5.20;4.70;;;;;;;14.48;84.09;98915.88;2619248;54;20030;-73
2021/08/30 02:35:39;;;;;;;6.35;5.40;;;;;;;14.53;84.01;98915.25;2619849;54;20031;-72
2021/08/30 02:38:10;;;;;;;6.22;5.22;;;;;;;14.48;84.11;98905.25;2618886;46;20030;-73
2021/08/30 02:40:42;;;;;;;6.38;5.22;;;;;;;14.50;84.21;98910.41;2620094;39;20478;-72
2021/08/30 02:43:13;;;;;;;6.18;4.15;;;;;;;14.53;84.48;98915.25;2619253;39;20446;-73
2021/08/30 02:45:43;;;;;;;5.85;4.75;;;;;;;14.55;84.37;98911.38;2618140;47;20085;-73
2021/08/30 02:48:13;;;;;;;5.65;5.10;;;;;;;14.61;84.37;98915.84;2618033;54;20061;-74
2021/08/30 02:50:46;;;;;;;5.05;4.55;;;;;;;14.63;84.12;98920.13;2618151;51;20027;-72
2021/08/30 02:53:16;;;;;;;5.72;4.53;;;;;;;14.67;84.18;98914.16;2618253;47;20043;-74
2021/08/30 02:55:46;;;;;;;4.85;4.32;;;;;;;14.71;83.46;98918.00;2618218;46;20059;-73
2021/08/30 02:58:16;;;;;;;4.53;4.10;;;;;;;14.77;83.87;98921.63;2617956;54;20145;-72
2021/08/30 03:00:46;;;;;;;5.13;4.40;;;;;;;14.77;83.55;98924.31;2618403;39;20407;-73
2021/08/30 03:03:17;;;;;;;5.43;4.72;;;;;;;14.79;83.65;98914.28;2617855;54;20037;-73
2021/08/30 03:05:51;;;;;;;4.95;4.45;;;;;;;14.77;83.40;98916.31;2618051;51;20034;-72
2021/08/30 03:08:21;;;;;;;5.00;4.50;;;;;;;14.79;83.68;98908.94;2618006;54;20030;-74
2021/08/30 03:10:52;;;;;;;5.40;4.85;;;;;;;14.76;83.69;98910.19;2618063;46;20042;-73
2021/08/30 03:13:22;;;;;;;5.25;4.75;;;;;;;14.72;83.33;98910.84;2618442;39;20426;-72
2021/08/30 03:15:54;;;;;;;6.03;4.70;;;;;;;14.70;83.36;98911.06;2617908;54;20022;-72
2021/08/30 03:18:24;;;;;;;6.32;4.95;;;;;;;14.70;83.54;98903.09;2617880;54;20037;-72
2021/08/30 03:20:58;;;;;;;5.75;5.25;;;;;;;14.69;83.67;98906.75;2617968;54;20023;-72
2021/08/30 03:23:30;;;;;;;4.93;4.40;;;;;;;14.71;83.47;98919.84;2618463;54;20030;-72
2021/08/30 03:26:01;;;;;;;8.25;4.85;;;;;;;14.71;83.83;98911.88;2619144;54;20027;-71
2021/08/30 03:28:32;;;;;;;7.43;6.38;;;;;;;14.74;83.92;98906.13;2619066;54;20033;-72
2021/08/30 03:31:03;;;;;;;6.18;5.55;;;;;;;14.72;83.95;98911.66;2619330;54;20045;-72
2021/08/30 03:33:34;;;;;;;6.57;4.82;;;;;;;14.74;83.48;98906.94;2618873;47;20027;-72
2021/08/30 03:36:07;;;;;;;6.40;5.22;;;;;;;14.77;83.25;98906.47;2617938;47;20580;-71
2021/08/30 03:38:37;;;;;;;5.72;4.65;;;;;;;14.75;83.42;98905.91;2618307;39;20438;-73
2021/08/30 03:41:08;;;;;;;7.13;5.85;;;;;;;14.71;83.62;98911.88;2618256;46;20027;-72
2021/08/30 03:43:38;;;;;;;6.60;6.00;;;;;;;14.66;83.79;98909.88;2618342;54;20042;-71
2021/08/30 03:46:08;;;;;;;7.45;5.95;;;;;;;14.63;83.77;98906.81;2618838;54;20661;-71
2021/08/30 03:48:38;;;;;;;6.72;5.60;;;;;;;14.59;83.91;98899.25;2617747;54;20912;-72
2021/08/30 03:51:12;;;;;;;6.35;5.65;;;;;;;14.57;84.05;98895.19;2617114;54;20097;-72
2021/08/30 03:53:44;;;;;;;7.47;6.20;;;;;;;14.57;83.99;98898.69;2616926;54;20037;-72
2021/08/30 03:56:14;;;;;;;7.18;5.40;;;;;;;14.61;83.98;98901.69;2616808;54;20033;-72
2021/08/30 03:58:46;;;;;;;7.43;5.75;;;;;;;14.58;84.38;98899.50;2616785;47;20604;-71
2021/08/30 04:01:23;;;;;;;7.78;5.88;;;;;;;14.63;84.51;98907.63;2616899;54;20561;-71
2021/08/30 04:03:55;;;;;;;7.68;6.43;;;;;;;14.69;83.88;98911.25;2617160;54;20122;-72
2021/08/30 04:06:31;;;;;;;7.32;5.28;;;;;;;14.74;83.97;98906.13;2618681;54;20538;-71
2021/08/30 04:09:01;;;;;;;8.18;6.25;;;;;;;14.79;83.99;98909.75;2620052;54;20041;-72
2021/08/30 04:11:31;;;;;;;6.05;5.45;;;;;;;14.80;83.77;98902.59;2619955;54;20026;-71
2021/08/30 04:14:00;;;;;;;6.85;5.93;;;;;;;14.80;83.38;98911.38;2619209;54;20045;-70
2021/08/30 04:16:30;;;;;;;7.80;5.45;;;;;;;14.84;83.56;98906.44;2619727;54;20023;-72
2021/08/30 04:18:59;;;;;;;6.43;5.80;;;;;;;14.80;83.45;98899.94;2619694;51;20027;-71
2021/08/30 04:21:32;;;;;;;6.47;5.70;;;;;;;14.82;83.89;98906.66;2619643;54;20606;-72
2021/08/30 04:24:01;;;;;;;6.22;5.53;;;;;;;14.87;83.82;98900.69;2620208;47;20062;-72
2021/08/30 04:26:31;;;;;;;7.68;5.80;;;;;;;14.91;83.38;98909.06;2619491;54;20565;-72
2021/08/30 04:29:01;;;;;;;5.78;5.15;;;;;;;14.93;83.43;98912.31;2620476;54;20035;-71
2021/08/30 04:31:31;;;;;;;6.43;5.53;;;;;;;14.94;83.20;98920.09;2621730;54;20018;-72
2021/08/30 04:34:02;;;;;;;7.03;5.82;;;;;;;15.00;83.16;98921.06;2621043;54;20033;-72
2021/08/30 04:36:34;;;;;;;6.50;5.90;;;;;;;14.95;82.83;98916.38;2618271;54;20053;-73
2021/08/30 04:39:03;;;;;;;6.60;6.00;;;;;;;14.90;83.20;98918.91;2618628;54;20046;-72
2021/08/30 04:41:33;;;;;;;7.63;6.78;;;;;;;14.88;83.13;98918.28;2618231;54;20086;-71
2021/08/30 04:44:02;;;;;;;6.20;5.47;;;;;;;14.82;83.25;98919.16;2618242;54;20023;-71
2021/08/30 04:46:32;;;;;;;6.32;5.72;;;;;;;14.79;83.69;98925.72;2617859;54;20589;-72
2021/08/30 04:49:02;;;;;;;7.53;6.10;;;;;;;14.83;83.95;98929.59;2617919;54;20038;-72
2021/08/30 04:51:34;;;;;;;9.27;6.68;;;;;;;14.82;84.00;98930.63;2618213;54;20058;-72
2021/08/30 04:54:04;;;;;;;7.10;6.40;;;;;;;14.79;83.69;98922.25;2618026;54;20042;-72
2021/08/30 04:56:33;;;;;;;7.50;6.30;;;;;;;14.81;83.53;98936.13;2618135;54;20030;-72
2021/08/30 04:59:03;;;;;;;6.93;6.00;;;;;;;14.84;83.76;98933.06;2618350;54;20034;-71
2021/08/30 05:01:32;;;;;;;7.15;6.45;;;;;;;14.85;83.94;98930.16;2618510;54;20034;-72
2021/08/30 05:04:02;;;;;;;7.97;5.97;;;;;;;14.89;83.68;98935.06;2624302;54;20138;-73
2021/08/30 05:06:35;;;;;;;7.97;6.43;;;;;;;14.89;83.79;98935.06;2624877;54;20049;-72
2021/08/30 05:09:04;;;;;;;8.93;6.15;;;;;;;14.85;83.70;98932.81;2624924;47;20035;-73
2021/08/30 05:11:34;;;;;;;8.35;7.10;;;;;;;14.85;83.67;98940.81;2624914;54;20034;-72
2021/08/30 05:14:04;;;;;;;8.95;6.50;;;;;;;14.90;83.70;98937.53;2621587;54;20034;-72
2021/08/30 05:16:33;;;;;;;9.20;7.10;;;;;;;14.92;83.90;98934.63;2618212;54;20558;-72
2021/08/30 05:19:03;;;;;;;8.82;7.38;;;;;;;14.95;83.38;98937.69;2618290;54;20089;-72
2021/08/30 05:21:35;;;;;;;7.38;6.63;;;;;;;14.97;83.38;98945.44;2618175;54;20565;-72
2021/08/30 05:24:06;;;;;;;9.48;7.25;;;;;;;14.98;83.68;98947.06;2617991;54;20039;-73
2021/08/30 05:26:36;;;;;;;8.32;7.40;;;;;;;14.98;83.40;98937.25;2617303;47;20031;-73
2021/08/30 05:29:06;;;;;;;9.65;7.13;;;;;;;14.98;83.28;98942.56;2618240;54;20030;-73
2021/08/30 05:31:36;;;;;;;8.15;7.30;;;;;;;15.02;83.70;98945.59;2619311;39;20404;-72
2021/08/30 05:34:06;;;;;;;12.07;8.70;;;;;;;15.03;83.56;98952.56;2618076;54;20030;-73
2021/08/30 05:36:38;;;;;;;10.23;7.90;;;;;;;15.03;83.69;98940.06;2618041;54;20042;-73
2021/08/30 05:39:07;;;;;;;10.60;8.15;;;;;;;15.06;83.23;98941.47;2618074;54;20038;-73
2021/08/30 05:41:37;;;;;;;11.98;8.48;;;;;;;15.10;83.28;98945.31;2618114;54;20038;-72
2021/08/30 05:44:07;;;;;;;8.02;7.22;;;;;;;15.16;83.29;98943.66;2617363;47;20026;-74
2021/08/30 05:46:37;;;;;;;8.95;7.55;;;;;;;15.22;83.14;98945.44;2617517;51;20042;-73
2021/08/30 05:49:07;;;;;;;13.18;9.23;;;;;;;15.30;83.04;98945.16;2617847;54;20050;-73
2021/08/30 05:51:39;;;;;;;14.75;9.38;;;;;;;15.37;83.43;98953.88;2618127;54;20545;-74
2021/08/30 05:54:09;;;;;;;10.73;8.70;;;;;;;15.36;83.43;98949.59;2617184;49;20026;-74
2021/08/30 05:56:38;;;;;;;11.95;8.40;;;;;;;15.38;83.08;98952.03;2617609;47;20030;-74
2021/08/30 05:59:08;;;;;;;13.30;9.60;;;;;;;15.40;82.88;98952.66;2617798;54;20039;-72
2021/08/30 06:01:38;;;;;;;14.18;9.00;;;;;;;15.46;82.98;98949.09;2618078;54;20038;-73
2021/08/30 06:04:08;;;;;;;9.38;8.25;;;;;;;15.51;82.77;98951.91;2617720;54;20033;-73
2021/08/30 06:06:40;;;;;;;11.23;7.85;;;;;;;15.53;82.29;98950.66;2617957;54;20035;-74
2021/08/30 06:09:10;;;;;;;12.98;8.95;;;;;;;15.54;82.73;98954.94;2619191;39;20441;-68
2021/08/30 06:11:40;;;;;;;11.25;9.32;;;;;;;15.58;82.23;98955.31;2623873;47;20533;-68
2021/08/30 06:14:10;;;;;;;10.23;9.15;;;;;;;15.65;82.27;98947.28;2625964;39;20454;-68
2021/08/30 06:16:39;;;;;;;12.73;9.73;;;;;;;15.68;81.82;98955.66;2623628;39;20492;-69
2021/08/30 06:19:09;;;;;;;11.10;9.48;;;;;;;15.71;82.33;98952.53;2624324;54;20030;-69
2021/08/30 06:21:41;;;;;;;12.40;10.30;;;;;;;15.77;82.30;98951.66;2625133;54;20569;-69
2021/08/30 06:24:11;;;;;;;10.60;9.35;;;;;;;15.76;81.71;98949.22;2624883;54;20039;-69
2021/08/30 06:26:40;;;;;;;12.50;9.10;;;;;;;15.77;82.06;98949.00;2624136;54;20557;-69
2021/08/30 06:29:10;;;;;;;12.13;9.48;;;;;;;15.69;81.88;98951.97;2624415;54;20030;-69
2021/08/30 06:31:40;;;;;;;13.02;10.23;;;;;;;15.69;82.02;98957.28;2622322;47;20023;-69
2021/08/30 06:34:10;;;;;;;12.57;9.60;;;;;;;15.68;82.09;98957.53;2620567;54;20034;-69
2021/08/30 06:36:42;;;;;;;13.20;10.82;;;;;;;15.71;82.59;98963.19;2620734;39;20491;-69
2021/08/30 06:39:12;;;;;;;12.50;11.20;;;;;;;15.74;81.73;98953.94;2620997;54;20030;-69
2021/08/30 06:41:41;;;;;;;12.85;11.32;;;;;;;15.73;81.84;98963.00;2621147;54;20062;-70
2021/08/30 06:44:11;;;;;;;15.45;11.43;;;;;;;15.73;81.72;98963.00;2620630;54;20074;-69
2021/08/30 06:46:41;;;;;;;13.15;11.75;;;;;;;15.78;81.98;98966.59;2622930;47;20038;-69
2021/08/30 06:49:10;;;;;;;15.75;11.55;;;;;;;15.80;81.59;98963.75;2625332;39;20110;-70
2021/08/30 06:51:42;;;;;;;12.98;11.38;;;;;;;15.84;81.57;98962.25;2624729;54;20040;-70
2021/08/30 06:54:12;;;;;;;16.52;11.68;;;;;;;15.89;81.70;98957.06;2624638;54;20034;-69
2021/08/30 06:56:42;;;;;;;12.05;10.73;;;;;;;15.90;81.47;98950.69;2623887;47;20554;-69
2021/08/30 06:59:11;;;;;;;14.77;11.77;;;;;;;15.96;81.30;98955.16;2623770;47;20037;-69
2021/08/30 07:01:41;;;;;;;13.70;11.88;;;;;;;16.00;80.95;98963.47;2623935;47;20026;-69
2021/08/30 07:04:11;;;;;;;12.05;10.80;;;;;;;16.01;80.96;98962.47;2623989;54;20583;-69
2021/08/30 07:06:44;;;;;;;14.30;11.90;;;;;;;16.03;80.82;98957.72;2623603;47;20042;-69
2021/08/30 07:09:13;;;;;;;14.88;12.15;;;;;;;16.03;81.09;98958.53;2624439;54;20038;-69
2021/08/30 07:11:43;;;;;;;12.73;10.70;;;;;;;16.08;81.17;98966.69;2624882;54;20028;-69
2021/08/30 07:14:12;;;;;;;14.23;10.90;;;;;;;16.12;80.72;98959.03;2624395;47;20025;-69
2021/08/30 07:16:42;;;;;;;13.70;10.80;;;;;;;16.10;80.83;98964.59;2625086;54;20038;-69
2021/08/30 07:19:12;;;;;;;15.80;11.95;;;;;;;16.12;80.86;98961.69;2625539;54;20033;-69
2021/08/30 07:21:44;;;;;;;14.65;11.43;;;;;;;16.18;80.29;98971.47;2625032;54;20026;-69
2021/08/30 07:24:14;;;;;;;12.65;11.30;;;;;;;16.18;80.43;98973.34;2624918;47;20042;-69
2021/08/30 07:26:43;;;;;;;13.07;11.13;;;;;;;16.18;80.36;98968.00;2624543;47;20027;-69
2021/08/30 07:29:13;;;;;;;12.30;10.48;;;;;;;16.16;80.26;98968.19;2625565;54;20037;-69
2021/08/30 07:31:43;;;;;;;12.35;11.05;;;;;;;16.16;80.22;98957.53;2625173;51;20553;-69
2021/08/30 07:34:13;;;;;;;13.77;11.27;;;;;;;16.19;79.93;98966.94;2625568;54;20542;-69
2021/08/30 07:36:45;;;;;;;14.80;11.63;;;;;;;16.16;80.18;98968.19;2625856;54;20046;-69
2021/08/30 07:39:14;;;;;;;15.75;12.43;;;;;;;16.19;80.00;98966.94;2625080;54;20038;-69
2021/08/30 07:41:44;;;;;;;17.02;11.60;;;;;;;16.19;79.68;98969.63;2625243;54;20555;-68
2021/08/30 07:44:14;;;;;;;13.43;11.52;;;;;;;16.26;79.96;98970.34;2621080;47;20026;-68
2021/08/30 07:46:43;;;;;;;13.70;11.65;;;;;;;16.38;79.91;98983.75;2621304;39;20422;-68
2021/08/30 07:49:13;;;;;;;12.77;10.50;;;;;;;16.41;79.25;98975.28;2619312;54;20069;-68
2021/08/30 07:51:46;;;;;;;14.07;12.13;;;;;;;16.48;78.74;98979.47;2619057;51;20130;-69
2021/08/30 07:54:15;;;;;;;15.65;12.20;;;;;;;16.52;78.87;98983.31;2620996;54;20034;-68
2021/08/30 07:56:45;;;;;;;15.68;11.73;;;;;;;16.54;78.28;98983.13;2621091;54;20562;-69
2021/08/30 07:59:15;;;;;;;11.75;10.52;;;;;;;16.61;77.37;98989.16;2619208;54;20046;-68
2021/08/30 08:01:46;;;;;;;12.38;10.95;;;;;;;16.62;77.84;98990.81;2620193;54;20018;-69
2021/08/30 08:04:16;;;;;;;13.75;12.35;;;;;;;16.74;77.67;98994.34;2621234;46;20018;-68
2021/08/30 08:06:48;;;;;;;13.73;11.52;;;;;;;16.70;77.13;98993.16;2623742;47;20633;-68
2021/08/30 08:09:18;;;;;;;12.45;11.07;;;;;;;16.79;77.54;98993.66;2625878;54;20023;-68
2021/08/30 08:11:48;;;;;;;13.13;11.73;;;;;;;16.86;77.17;99002.41;2625211;54;20042;-68
2021/08/30 08:14:18;;;;;;;14.30;12.07;;;;;;;16.87;76.81;99008.56;2625062;46;20049;-69
2021/08/30 08:16:48;;;;;;;14.98;11.77;;;;;;;16.83;76.88;99009.00;2625423;54;20027;-68
2021/08/30 08:19:17;;;;;;;12.93;11.52;;;;;;;16.82;76.77;99014.56;2622545;54;20034;-69
2021/08/30 08:21:50;;;;;;;17.35;11.63;;;;;;;16.81;76.99;99023.59;2621262;47;20541;-68
2021/08/30 08:24:22;;;;;;;13.83;11.57;;;;;;;16.77;76.60;99023.25;2622967;54;20041;-68
2021/08/30 08:26:51;;;;;;;14.00;11.93;;;;;;;16.77;76.85;99025.91;2622064;54;20022;-68
2021/08/30 08:29:21;;;;;;;14.23;12.40;;;;;;;16.79;76.96;99023.84;2622965;54;20037;-69
2021/08/30 08:31:51;;;;;;;15.70;13.23;;;;;;;16.84;76.13;99023.97;2624299;54;20030;-70
2021/08/30 08:34:21;;;;;;;12.65;11.18;;;;;;;16.85;76.14;99024.78;2623532;54;20038;-69
2021/08/30 08:36:53;;;;;;;12.05;10.68;;;;;;;16.88;76.01;99023.53;2623233;54;20038;-68
2021/08/30 08:39:23;;;;;;;16.00;11.82;;;;;;;16.90;76.45;99021.44;2625232;39;20098;-70
2021/08/30 08:41:52;;;;;;;19.00;11.90;;;;;;;16.90;76.07;99016.94;2624218;54;20038;-70
2021/08/30 08:44:22;;;;;;;13.20;11.82;;;;;;;16.89;75.78;99025.94;2625553;39;20439;-68
2021/08/30 08:46:52;;;;;;;13.60;11.25;;;;;;;16.89;76.07;99025.94;2624728;54;20031;-68
2021/08/30 08:49:22;;;;;;;14.45;11.07;;;;;;;16.91;75.91;99025.75;2626263;39;20435;-69
2021/08/30 08:51:54;;;;;;;13.05;11.45;;;;;;;16.98;75.61;99034.44;2624268;54;20049;-69
2021/08/30 08:54:24;;;;;;;12.77;11.23;;;;;;;16.94;75.98;99034.13;2625337;54;20030;-69
2021/08/30 08:56:55;;;;;;;15.63;12.13;;;;;;;16.97;75.76;99028.28;2625048;54;20577;-69
2021/08/30 08:59:24;;;;;;;14.90;12.68;;;;;;;17.03;75.44;99029.25;2624934;47;20058;-70
2021/08/30 09:02:01;;;;;;;23.20;20.60;;;;;;;17.21;75.06;99031.03;2624453;54;20034;-70
2021/08/30 09:04:33;;;;;;;12.20;10.15;;;;;;;17.29;75.17;99028.81;2623075;54;20166;-69
2021/08/30 09:07:15;;;;;;;14.98;11.93;;;;;;;17.33;73.99;99037.19;2621835;46;20041;-69
2021/08/30 09:09:45;;;;;;;11.48;10.30;;;;;;;17.40;74.12;99027.22;2623468;39;20419;-68
2021/08/30 09:12:21;;;;;;;15.27;10.77;;;;;;;17.50;73.47;99027.44;2622040;54;20038;-67
2021/08/30 09:14:51;;;;;;;15.40;11.18;;;;;;;17.56;73.43;99025.72;2622937;54;20034;-69
2021/08/30 09:17:21;;;;;;;11.85;10.60;;;;;;;17.61;73.48;99025.84;2625316;39;20411;-68
2021/08/30 09:19:56;;;;;;;13.73;11.57;;;;;;;17.72;73.05;99021.53;2622191;54;20037;-68
2021/08/30 09:22:35;;;;;;;13.35;10.65;;;;;;;17.78;71.67;99026.78;2621500;54;20030;-69
2021/08/30 09:25:12;;;;;;;12.18;10.48;;;;;;;17.87;71.62;99029.91;2622090;54;20022;-68
2021/08/30 09:27:46;;;;;;;12.77;11.40;;;;;;;17.79;69.92;99024.91;2622787;39;20406;-69
2021/08/30 09:30:17;;;;;;;12.55;9.95;;;;;;;17.90;70.43;99033.97;2622807;54;20099;-69
2021/08/30 09:32:50;;;;;;;13.55;10.50;;;;;;;18.00;70.98;99028.84;2622520;54;20034;-69
2021/08/30 09:35:22;;;;;;;13.13;11.02;;;;;;;18.15;69.96;99028.34;2622270;54;20522;-69
2021/08/30 09:37:55;;;;;;;14.18;11.23;;;;;;;18.27;70.24;99023.78;2621782;54;20030;-70
2021/08/30 09:40:29;;;;;;;13.52;11.18;;;;;;;18.24;69.82;99024.25;2623271;47;20037;-69
2021/08/30 09:42:59;;;;;;;14.38;9.68;;;;;;;18.21;68.88;99032.78;2622064;47;20082;-69
2021/08/30 09:45:32;;;;;;;10.90;9.80;;;;;;;18.27;68.62;99029.94;2621810;54;20029;-69
2021/08/30 09:48:06;;;;;;;15.05;10.82;;;;;;;18.22;68.52;99031.72;2622400;54;20574;-69
2021/08/30 09:50:44;;;;;;;12.77;10.00;;;;;;;18.28;68.85;99023.53;2620800;47;20031;-70
2021/08/30 09:53:16;;;;;;;11.38;10.18;;;;;;;18.39;68.71;99027.25;2621731;54;20045;-67
2021/08/30 09:55:47;;;;;;;11.25;10.10;;;;;;;18.54;68.47;99024.88;2623062;54;20035;-68
2021/08/30 09:58:18;;;;;;;14.02;9.82;;;;;;;18.61;67.91;99019.34;2622781;54;20037;-69
2021/08/30 10:00:49;;;;;;;11.57;10.05;;;;;;;18.64;67.48;99023.44;2622092;47;20018;-70
2021/08/30 10:03:20;;;;;;;10.75;9.38;;;;;;;18.67;67.32;99023.75;2622288;54;20052;-68
2021/08/30 10:05:51;;;;;;;10.82;9.52;;;;;;;18.72;67.27;99023.88;2624085;54;20026;-69
2021/08/30 10:08:25;;;;;;;10.88;9.75;;;;;;;18.80;66.80;99023.50;2623540;54;20042;-69
2021/08/30 10:10:54;;;;;;;11.35;10.13;;;;;;;18.86;66.44;99023.56;2622693;54;20126;-69
2021/08/30 10:13:24;;;;;;;11.68;10.57;;;;;;;18.93;65.87;99027.72;2621918;54;20025;-70
2021/08/30 10:15:55;;;;;;;10.00;9.00;;;;;;;18.98;65.63;99024.31;2622035;39;20441;-69
2021/08/30 10:18:24;;;;;;;10.68;9.57;;;;;;;18.83;65.17;99019.53;2621292;54;20037;-70
2021/08/30 10:20:54;;;;;;;11.63;10.40;;;;;;;18.90;65.68;99027.41;2621886;54;20031;-70
2021/08/30 10:23:38;;;;;;;11.05;9.95;;;;;;;18.88;64.14;99014.25;2621810;54;20538;-69
2021/08/30 10:26:07;;;;;;;;;;;;;;;18.87;64.96;99017.19;2622963;54;20030;-69
2021/08/30 10:28:39;;;;;;;10.57;9.55;;;;;;;18.90;64.93;99022.03;2622209;54;20443;-69
2021/08/30 10:31:29;;;;;;;10.85;8.73;;;;;;;19.12;65.09;99025.66;2621829;47;20026;-70
2021/08/30 10:34:01;;;;;;;10.13;9.05;;;;;;;19.24;64.67;99022.91;2622369;54;20035;-69
2021/08/30 10:36:32;;;;;;;9.50;8.50;;;;;;;19.17;62.38;99024.94;2621847;47;20678;-69
2021/08/30 10:39:08;;;;;;;9.68;8.65;;;;;;;19.11;62.71;99029.41;2621506;54;20042;-68
2021/08/30 10:41:39;;;;;;;10.35;8.95;;;;;;;19.05;62.96;99028.47;2622988;54;20038;-70
2021/08/30 10:44:15;;;;;;;10.23;9.20;;;;;;;19.09;62.80;99028.00;2621948;47;20034;-69
2021/08/30 10:46:49;;;;;;;11.00;8.75;;;;;;;19.20;62.43;99025.25;2623437;39;20485;-67
2021/08/30 10:49:22;;;;;;;9.13;8.10;;;;;;;19.32;62.98;99019.81;2622221;54;20022;-69
2021/08/30 10:51:52;;;;;;;9.50;8.45;;;;;;;19.37;63.49;99022.56;2623204;54;20045;-69
2021/08/30 10:54:24;;;;;;;9.63;8.43;;;;;;;19.44;62.96;99023.22;2622580;54;20034;-69
2021/08/30 10:56:59;;;;;;;11.10;8.88;;;;;;;19.38;61.63;99026.06;2621368;54;20035;-69
2021/08/30 10:59:32;;;;;;;10.38;9.07;;;;;;;19.32;61.48;99025.19;2621555;54;20031;-68
2021/08/30 11:02:04;;;;;;;9.02;7.93;;;;;;;19.45;61.01;99022.16;2621556;54;20038;-68
2021/08/30 11:04:36;;;;;;;9.63;8.45;;;;;;;19.69;61.10;99030.06;2620937;47;20034;-67
2021/08/30 11:07:08;;;;;;;11.15;8.63;;;;;;;19.87;60.72;99020.91;2621259;54;20026;-70
2021/08/30 11:09:47;;;;;;;10.00;8.65;;;;;;;19.89;60.22;99018.81;2621630;54;20027;-68
2021/08/30 11:12:17;;;;;;;8.02;7.22;;;;;;;19.94;60.17;99018.84;2621290;54;20027;-70
2021/08/30 11:14:56;;;;;;;11.82;9.10;;;;;;;19.97;59.66;99019.19;2620812;54;20530;-69
2021/08/30 11:17:29;;;;;;;9.77;8.32;;;;;;;20.01;59.66;99019.50;2621395;39;20399;-68
2021/08/30 11:20:00;;;;;;;9.82;8.57;;;;;;;19.83;59.74;99014.41;2621475;54;20030;-68
2021/08/30 11:22:30;;;;;;;7.88;7.07;;;;;;;19.93;59.91;99009.19;2620586;47;20033;-69
2021/08/30 11:25:04;;;;;;;10.07;9.07;;;;;;;19.95;59.91;99010.56;2620927;54;20037;-70
2021/08/30 11:27:34;;;;;;;8.77;7.72;;;;;;;19.97;59.28;99011.13;2620166;54;20065;-72
2021/08/30 11:30:08;;;;;;;10.35;9.27;;;;;;;20.01;59.08;99009.56;2620948;54;20026;-69
2021/08/30 11:32:40;;;;;;;10.02;8.18;;;;;;;20.01;59.47;98998.03;2620093;47;20023;-70
2021/08/30 11:35:15;;;;;;;8.60;7.70;;;;;;;19.98;59.29;99001.22;2621119;54;20030;-71
2021/08/30 11:37:44;;;;;;;8.32;7.53;;;;;;;20.18;59.22;99006.81;2619949;47;20037;-69
2021/08/30 11:40:17;;;;;;;10.20;7.72;;;;;;;20.29;59.38;99005.09;2621088;39;20443;-69
2021/08/30 11:42:47;;;;;;;8.30;6.95;;;;;;;20.30;59.09;98995.97;2620988;54;20802;-69
2021/08/30 11:45:16;;;;;;;8.93;7.90;;;;;;;20.21;59.24;99003.66;2621254;54;20029;-69
2021/08/30 11:47:47;;;;;;;9.60;8.43;;;;;;;19.90;58.79;99005.13;2620341;47;20022;-69
2021/08/30 11:50:17;;;;;;;9.73;7.93;;;;;;;19.69;58.63;98992.50;2621129;54;20030;-69
2021/08/30 11:52:46;;;;;;;9.15;7.95;;;;;;;19.48;59.24;99002.91;2621535;54;20027;-69
2021/08/30 11:55:22;;;;;;;13.55;8.23;;;;;;;19.31;61.19;99015.53;2622101;54;20030;-69
2021/08/30 11:57:54;;;;;;;11.02;9.15;;;;;;;19.08;63.23;99026.38;2621828;47;20272;-69